sensor_id;sensor_type;location;lat;lon;timestamp;temperature;humidity
60027;DHT22;45891;53.006;6.512;2022-11-20T00:01:52;-0.70;99.90
60027;DHT22;45891;53.006;6.512;2022-11-20T00:04:18;-0.70;99.90
60027;DHT22;45891;53.006;6.512;2022-11-20T00:06:44;-0.70;99.90
60027;DHT22;45891;53.006;6.512;2022-11-20T00:09:10;-0.70;99.90
60027;DHT22;45891;53.006;6.512;2022-11-20T00:11:36;-0.60;99.90
60027;DHT22;45891;53.006;6.512;2022-11-20T00:14:02;-0.60;99.90
60027;DHT22;45891;53.006;6.512;2022-11-20T00:16:30;-0.60;99.90
60027;DHT22;45891;53.006;6.512;2022-11-20T00:18:56;-0.50;99.90
60027;DHT22;45891;53.006;6.512;2022-11-20T00:21:26;-0.50;99.90
60027;DHT22;45891;53.006;6.512;2022-11-20T00:23:53;-0.50;99.90
60027;DHT22;45891;53.006;6.512;2022-11-20T00:26:20;-0.50;99.90
60027;DHT22;45891;53.006;6.512;2022-11-20T00:28:50;-0.50;99.90
60027;DHT22;45891;53.006;6.512;2022-11-20T00:31:17;-0.50;99.90
60027;DHT22;45891;53.006;6.512;2022-11-20T00:33:43;-0.50;99.90
60027;DHT22;45891;53.006;6.512;2022-11-20T00:36:13;-0.50;99.90
60027;DHT22;45891;53.006;6.512;2022-11-20T00:38:39;-0.50;99.90
60027;DHT22;45891;53.006;6.512;2022-11-20T00:41:07;-0.50;99.90
60027;DHT22;45891;53.006;6.512;2022-11-20T00:43:33;-0.40;99.90
60027;DHT22;45891;53.006;6.512;2022-11-20T00:46:00;-0.40;99.90
60027;DHT22;45891;53.006;6.512;2022-11-20T00:48:26;-0.40;99.90
60027;DHT22;45891;53.006;6.512;2022-11-20T00:50:52;-0.40;99.90
60027;DHT22;45891;53.006;6.512;2022-11-20T00:53:19;-0.40;99.90
60027;DHT22;45891;53.006;6.512;2022-11-20T00:55:58;-0.40;99.90
60027;DHT22;45891;53.006;6.512;2022-11-20T00:58:24;-0.40;99.90
60027;DHT22;45891;53.006;6.512;2022-11-20T01:00:50;-0.40;99.90
60027;DHT22;45891;53.006;6.512;2022-11-20T01:03:17;-0.40;99.90
60027;DHT22;45891;53.006;6.512;2022-11-20T01:05:43;-0.40;99.90
60027;DHT22;45891;53.006;6.512;2022-11-20T01:08:09;-0.40;99.90
60027;DHT22;45891;53.006;6.512;2022-11-20T01:10:35;-0.40;99.90
60027;DHT22;45891;53.006;6.512;2022-11-20T01:13:01;-0.30;99.90
60027;DHT22;45891;53.006;6.512;2022-11-20T01:15:46;-0.30;99.90
60027;DHT22;45891;53.006;6.512;2022-11-20T01:18:12;-0.30;99.90
60027;DHT22;45891;53.006;6.512;2022-11-20T01:20:38;-0.30;99.90
60027;DHT22;45891;53.006;6.512;2022-11-20T01:23:05;-0.30;99.90
60027;DHT22;45891;53.006;6.512;2022-11-20T01:25:31;-0.20;99.90
60027;DHT22;45891;53.006;6.512;2022-11-20T01:27:57;-0.20;99.90
60027;DHT22;45891;53.006;6.512;2022-11-20T01:30:23;-0.20;99.90
60027;DHT22;45891;53.006;6.512;2022-11-20T01:32:49;-0.20;99.90
60027;DHT22;45891;53.006;6.512;2022-11-20T01:35:15;-0.20;99.90
60027;DHT22;45891;53.006;6.512;2022-11-20T01:37:41;-0.20;99.90
60027;DHT22;45891;53.006;6.512;2022-11-20T01:40:07;-0.20;99.90
60027;DHT22;45891;53.006;6.512;2022-11-20T01:42:33;-0.20;99.90
60027;DHT22;45891;53.006;6.512;2022-11-20T01:48:05;-0.20;99.90
60027;DHT22;45891;53.006;6.512;2022-11-20T01:50:32;-0.20;99.90
60027;DHT22;45891;53.006;6.512;2022-11-20T01:53:00;-0.20;99.90
60027;DHT22;45891;53.006;6.512;2022-11-20T01:55:31;-0.20;99.90
60027;DHT22;45891;53.006;6.512;2022-11-20T01:57:58;-0.20;99.90
60027;DHT22;45891;53.006;6.512;2022-11-20T02:00:25;-0.20;99.90
60027;DHT22;45891;53.006;6.512;2022-11-20T02:02:52;-0.20;99.90
60027;DHT22;45891;53.006;6.512;2022-11-20T02:07:48;-0.20;99.90
60027;DHT22;45891;53.006;6.512;2022-11-20T02:10:14;-0.20;99.90
60027;DHT22;45891;53.006;6.512;2022-11-20T02:12:42;-0.20;99.90
60027;DHT22;45891;53.006;6.512;2022-11-20T02:15:27;-0.10;99.90
60027;DHT22;45891;53.006;6.512;2022-11-20T02:17:53;-0.10;99.90
60027;DHT22;45891;53.006;6.512;2022-11-20T02:20:19;-0.10;99.90
60027;DHT22;45891;53.006;6.512;2022-11-20T02:22:54;-0.10;99.90
60027;DHT22;45891;53.006;6.512;2022-11-20T02:25:22;-0.10;99.90
60027;DHT22;45891;53.006;6.512;2022-11-20T02:27:49;-0.10;99.90
60027;DHT22;45891;53.006;6.512;2022-11-20T02:30:16;-0.10;99.90
60027;DHT22;45891;53.006;6.512;2022-11-20T02:32:43;-0.10;99.90
60027;DHT22;45891;53.006;6.512;2022-11-20T02:35:35;-0.10;99.90
60027;DHT22;45891;53.006;6.512;2022-11-20T02:37:56;-0.10;99.90
60027;DHT22;45891;53.006;6.512;2022-11-20T02:40:22;-0.10;99.90
60027;DHT22;45891;53.006;6.512;2022-11-20T02:42:51;0.00;99.90
60027;DHT22;45891;53.006;6.512;2022-11-20T02:45:17;-0.10;99.90
60027;DHT22;45891;53.006;6.512;2022-11-20T02:47:44;0.00;99.90
60027;DHT22;45891;53.006;6.512;2022-11-20T02:50:10;0.00;99.90
60027;DHT22;45891;53.006;6.512;2022-11-20T02:52:36;0.00;99.90
60027;DHT22;45891;53.006;6.512;2022-11-20T02:55:02;0.00;99.90
60027;DHT22;45891;53.006;6.512;2022-11-20T02:57:30;0.00;99.90
60027;DHT22;45891;53.006;6.512;2022-11-20T02:59:56;0.00;99.90
60027;DHT22;45891;53.006;6.512;2022-11-20T03:02:22;0.00;99.90
60027;DHT22;45891;53.006;6.512;2022-11-20T03:04:48;0.00;99.90
60027;DHT22;45891;53.006;6.512;2022-11-20T03:07:14;0.00;99.90
60027;DHT22;45891;53.006;6.512;2022-11-20T03:09:40;0.00;99.90
60027;DHT22;45891;53.006;6.512;2022-11-20T03:12:08;0.00;99.90
60027;DHT22;45891;53.006;6.512;2022-11-20T03:14:34;0.00;99.90
60027;DHT22;45891;53.006;6.512;2022-11-20T03:17:00;0.10;99.90
60027;DHT22;45891;53.006;6.512;2022-11-20T03:19:26;0.00;99.90
60027;DHT22;45891;53.006;6.512;2022-11-20T03:21:54;0.10;99.90
60027;DHT22;45891;53.006;6.512;2022-11-20T03:24:20;0.00;99.90
60027;DHT22;45891;53.006;6.512;2022-11-20T03:26:46;0.10;99.90
60027;DHT22;45891;53.006;6.512;2022-11-20T03:29:12;0.10;99.90
60027;DHT22;45891;53.006;6.512;2022-11-20T03:31:39;0.10;99.90
60027;DHT22;45891;53.006;6.512;2022-11-20T03:34:06;0.10;99.90
60027;DHT22;45891;53.006;6.512;2022-11-20T03:36:33;0.10;99.90
60027;DHT22;45891;53.006;6.512;2022-11-20T03:38:59;0.10;99.90
60027;DHT22;45891;53.006;6.512;2022-11-20T03:41:27;0.10;99.90
60027;DHT22;45891;53.006;6.512;2022-11-20T03:43:54;0.10;99.90
60027;DHT22;45891;53.006;6.512;2022-11-20T03:46:21;0.10;99.90
60027;DHT22;45891;53.006;6.512;2022-11-20T03:48:48;0.10;99.90
60027;DHT22;45891;53.006;6.512;2022-11-20T03:51:15;0.10;99.90
60027;DHT22;45891;53.006;6.512;2022-11-20T03:53:42;0.10;99.90
60027;DHT22;45891;53.006;6.512;2022-11-20T03:56:08;0.20;99.90
60027;DHT22;45891;53.006;6.512;2022-11-20T03:58:35;0.10;99.90
60027;DHT22;45891;53.006;6.512;2022-11-20T04:01:13;0.20;99.90
60027;DHT22;45891;53.006;6.512;2022-11-20T04:03:39;0.20;99.90
60027;DHT22;45891;53.006;6.512;2022-11-20T04:06:10;0.20;99.90
60027;DHT22;45891;53.006;6.512;2022-11-20T04:08:37;0.30;99.90
60027;DHT22;45891;53.006;6.512;2022-11-20T04:11:16;0.30;99.90
60027;DHT22;45891;53.006;6.512;2022-11-20T04:13:45;0.30;99.90
60027;DHT22;45891;53.006;6.512;2022-11-20T04:16:11;0.30;99.90
60027;DHT22;45891;53.006;6.512;2022-11-20T04:18:37;0.30;99.90
60027;DHT22;45891;53.006;6.512;2022-11-20T04:21:04;0.30;99.90
60027;DHT22;45891;53.006;6.512;2022-11-20T04:23:30;0.30;99.90
60027;DHT22;45891;53.006;6.512;2022-11-20T04:28:48;0.30;99.90
60027;DHT22;45891;53.006;6.512;2022-11-20T04:31:16;0.20;99.90
60027;DHT22;45891;53.006;6.512;2022-11-20T04:33:42;0.30;99.90
60027;DHT22;45891;53.006;6.512;2022-11-20T04:36:15;0.20;99.90
60027;DHT22;45891;53.006;6.512;2022-11-20T04:38:42;0.20;99.90
60027;DHT22;45891;53.006;6.512;2022-11-20T04:41:11;0.20;99.90
60027;DHT22;45891;53.006;6.512;2022-11-20T04:43:39;0.20;99.90
60027;DHT22;45891;53.006;6.512;2022-11-20T04:46:05;0.20;99.90
60027;DHT22;45891;53.006;6.512;2022-11-20T04:48:31;0.20;99.90
60027;DHT22;45891;53.006;6.512;2022-11-20T04:51:02;0.20;99.90
60027;DHT22;45891;53.006;6.512;2022-11-20T04:53:28;0.20;99.90
60027;DHT22;45891;53.006;6.512;2022-11-20T04:56:05;0.20;99.90
60027;DHT22;45891;53.006;6.512;2022-11-20T04:58:31;0.20;99.90
60027;DHT22;45891;53.006;6.512;2022-11-20T05:01:02;0.30;99.90
60027;DHT22;45891;53.006;6.512;2022-11-20T05:03:28;0.30;99.90
60027;DHT22;45891;53.006;6.512;2022-11-20T05:05:54;0.30;99.90
60027;DHT22;45891;53.006;6.512;2022-11-20T05:08:23;0.30;99.90
60027;DHT22;45891;53.006;6.512;2022-11-20T05:10:49;0.30;99.90
60027;DHT22;45891;53.006;6.512;2022-11-20T05:13:15;0.30;99.90
60027;DHT22;45891;53.006;6.512;2022-11-20T05:15:41;0.30;99.90
60027;DHT22;45891;53.006;6.512;2022-11-20T05:18:07;0.40;99.90
60027;DHT22;45891;53.006;6.512;2022-11-20T05:20:33;0.40;99.90
60027;DHT22;45891;53.006;6.512;2022-11-20T05:23:01;0.40;99.90
60027;DHT22;45891;53.006;6.512;2022-11-20T05:25:27;0.40;99.90
60027;DHT22;45891;53.006;6.512;2022-11-20T05:27:53;0.40;99.90
60027;DHT22;45891;53.006;6.512;2022-11-20T05:30:20;0.40;99.90
60027;DHT22;45891;53.006;6.512;2022-11-20T05:32:46;0.40;99.90
60027;DHT22;45891;53.006;6.512;2022-11-20T05:35:12;0.40;99.90
60027;DHT22;45891;53.006;6.512;2022-11-20T05:37:39;0.50;99.90
60027;DHT22;45891;53.006;6.512;2022-11-20T05:40:05;0.50;99.90
60027;DHT22;45891;53.006;6.512;2022-11-20T05:42:31;0.50;99.90
60027;DHT22;45891;53.006;6.512;2022-11-20T05:44:58;0.50;99.90
60027;DHT22;45891;53.006;6.512;2022-11-20T05:47:24;0.40;99.90
60027;DHT22;45891;53.006;6.512;2022-11-20T05:49:51;0.40;99.90
60027;DHT22;45891;53.006;6.512;2022-11-20T05:52:17;0.40;99.90
60027;DHT22;45891;53.006;6.512;2022-11-20T05:54:43;0.40;99.90
60027;DHT22;45891;53.006;6.512;2022-11-20T05:57:09;0.40;99.90
60027;DHT22;45891;53.006;6.512;2022-11-20T05:59:35;0.40;99.90
60027;DHT22;45891;53.006;6.512;2022-11-20T06:02:01;0.50;99.90
60027;DHT22;45891;53.006;6.512;2022-11-20T06:04:27;0.50;99.90
60027;DHT22;45891;53.006;6.512;2022-11-20T06:06:54;0.50;99.90
60027;DHT22;45891;53.006;6.512;2022-11-20T06:09:20;0.50;99.90
60027;DHT22;45891;53.006;6.512;2022-11-20T06:11:46;0.50;99.90
60027;DHT22;45891;53.006;6.512;2022-11-20T06:14:13;0.50;99.90
60027;DHT22;45891;53.006;6.512;2022-11-20T06:16:38;0.50;99.90
60027;DHT22;45891;53.006;6.512;2022-11-20T06:19:04;0.50;99.90
60027;DHT22;45891;53.006;6.512;2022-11-20T06:21:30;0.50;99.90
60027;DHT22;45891;53.006;6.512;2022-11-20T06:23:56;0.50;99.90
60027;DHT22;45891;53.006;6.512;2022-11-20T06:26:23;0.50;99.90
60027;DHT22;45891;53.006;6.512;2022-11-20T06:28:51;0.60;99.90
60027;DHT22;45891;53.006;6.512;2022-11-20T06:31:18;0.50;99.90
60027;DHT22;45891;53.006;6.512;2022-11-20T06:33:46;0.50;99.90
60027;DHT22;45891;53.006;6.512;2022-11-20T06:36:12;0.60;99.90
60027;DHT22;45891;53.006;6.512;2022-11-20T06:38:39;0.50;99.90
60027;DHT22;45891;53.006;6.512;2022-11-20T06:41:06;0.50;99.90
60027;DHT22;45891;53.006;6.512;2022-11-20T06:43:33;0.50;99.90
60027;DHT22;45891;53.006;6.512;2022-11-20T06:45:59;0.50;99.90
60027;DHT22;45891;53.006;6.512;2022-11-20T06:48:26;0.50;99.90
60027;DHT22;45891;53.006;6.512;2022-11-20T06:50:52;0.50;99.90
60027;DHT22;45891;53.006;6.512;2022-11-20T06:53:18;0.60;99.90
60027;DHT22;45891;53.006;6.512;2022-11-20T06:55:47;0.50;99.90
60027;DHT22;45891;53.006;6.512;2022-11-20T06:58:13;0.50;99.90
60027;DHT22;45891;53.006;6.512;2022-11-20T07:00:39;0.50;99.90
60027;DHT22;45891;53.006;6.512;2022-11-20T07:03:06;0.60;99.90
60027;DHT22;45891;53.006;6.512;2022-11-20T07:05:32;0.60;99.90
60027;DHT22;45891;53.006;6.512;2022-11-20T07:07:58;0.60;99.90
60027;DHT22;45891;53.006;6.512;2022-11-20T07:10:24;0.50;99.90
60027;DHT22;45891;53.006;6.512;2022-11-20T07:12:56;0.50;99.90
60027;DHT22;45891;53.006;6.512;2022-11-20T07:15:22;0.50;99.90
60027;DHT22;45891;53.006;6.512;2022-11-20T07:17:48;0.50;99.90
60027;DHT22;45891;53.006;6.512;2022-11-20T07:20:15;0.50;99.90
60027;DHT22;45891;53.006;6.512;2022-11-20T07:22:42;0.50;99.90
60027;DHT22;45891;53.006;6.512;2022-11-20T07:25:08;0.50;99.90
60027;DHT22;45891;53.006;6.512;2022-11-20T07:27:36;0.50;99.90
60027;DHT22;45891;53.006;6.512;2022-11-20T07:30:03;0.50;99.90
60027;DHT22;45891;53.006;6.512;2022-11-20T07:32:29;0.50;99.90
60027;DHT22;45891;53.006;6.512;2022-11-20T07:34:55;0.50;99.90
60027;DHT22;45891;53.006;6.512;2022-11-20T07:37:21;0.50;99.90
60027;DHT22;45891;53.006;6.512;2022-11-20T07:39:47;0.50;99.90
60027;DHT22;45891;53.006;6.512;2022-11-20T07:42:13;0.50;99.90
60027;DHT22;45891;53.006;6.512;2022-11-20T07:44:39;0.50;99.90
60027;DHT22;45891;53.006;6.512;2022-11-20T07:47:05;0.60;99.90
60027;DHT22;45891;53.006;6.512;2022-11-20T07:49:31;0.60;99.90
60027;DHT22;45891;53.006;6.512;2022-11-20T07:51:57;0.60;99.90
60027;DHT22;45891;53.006;6.512;2022-11-20T07:54:23;0.60;99.90
60027;DHT22;45891;53.006;6.512;2022-11-20T07:56:49;0.70;99.90
60027;DHT22;45891;53.006;6.512;2022-11-20T07:59:17;0.70;99.90
60027;DHT22;45891;53.006;6.512;2022-11-20T08:01:43;0.70;99.90
60027;DHT22;45891;53.006;6.512;2022-11-20T08:04:09;0.70;99.90
60027;DHT22;45891;53.006;6.512;2022-11-20T08:06:35;0.70;99.90
60027;DHT22;45891;53.006;6.512;2022-11-20T08:09:01;0.70;99.90
60027;DHT22;45891;53.006;6.512;2022-11-20T08:11:29;0.80;99.90
60027;DHT22;45891;53.006;6.512;2022-11-20T08:14:13;0.80;99.90
60027;DHT22;45891;53.006;6.512;2022-11-20T08:19:06;0.70;99.90
60027;DHT22;45891;53.006;6.512;2022-11-20T08:21:32;0.70;99.90
60027;DHT22;45891;53.006;6.512;2022-11-20T08:23:59;0.80;99.90
60027;DHT22;45891;53.006;6.512;2022-11-20T08:26:31;0.80;99.90
60027;DHT22;45891;53.006;6.512;2022-11-20T08:28:58;0.80;99.90
60027;DHT22;45891;53.006;6.512;2022-11-20T08:31:25;0.80;99.90
60027;DHT22;45891;53.006;6.512;2022-11-20T08:33:51;0.90;99.90
60027;DHT22;45891;53.006;6.512;2022-11-20T08:36:17;0.90;99.90
60027;DHT22;45891;53.006;6.512;2022-11-20T08:38:47;0.90;99.90
60027;DHT22;45891;53.006;6.512;2022-11-20T08:41:15;0.90;99.90
60027;DHT22;45891;53.006;6.512;2022-11-20T08:43:52;0.90;99.90
60027;DHT22;45891;53.006;6.512;2022-11-20T08:46:18;1.00;99.90
60027;DHT22;45891;53.006;6.512;2022-11-20T08:48:44;1.00;99.90
60027;DHT22;45891;53.006;6.512;2022-11-20T08:51:10;1.00;99.90
60027;DHT22;45891;53.006;6.512;2022-11-20T08:53:36;1.10;99.90
60027;DHT22;45891;53.006;6.512;2022-11-20T08:56:02;1.10;99.90
60027;DHT22;45891;53.006;6.512;2022-11-20T08:58:28;1.10;99.90
60027;DHT22;45891;53.006;6.512;2022-11-20T09:00:54;1.10;99.90
60027;DHT22;45891;53.006;6.512;2022-11-20T09:03:20;1.10;99.90
60027;DHT22;45891;53.006;6.512;2022-11-20T09:05:46;1.10;99.90
60027;DHT22;45891;53.006;6.512;2022-11-20T09:08:12;1.20;99.90
60027;DHT22;45891;53.006;6.512;2022-11-20T09:10:38;1.20;99.90
60027;DHT22;45891;53.006;6.512;2022-11-20T09:13:05;1.30;99.90
60027;DHT22;45891;53.006;6.512;2022-11-20T09:15:31;1.30;99.90
60027;DHT22;45891;53.006;6.512;2022-11-20T09:17:58;1.30;99.90
60027;DHT22;45891;53.006;6.512;2022-11-20T09:20:24;1.30;99.90
60027;DHT22;45891;53.006;6.512;2022-11-20T09:22:51;1.40;99.90
60027;DHT22;45891;53.006;6.512;2022-11-20T09:25:17;1.40;99.90
60027;DHT22;45891;53.006;6.512;2022-11-20T09:27:43;1.40;99.90
60027;DHT22;45891;53.006;6.512;2022-11-20T09:30:11;1.50;99.90
60027;DHT22;45891;53.006;6.512;2022-11-20T09:32:44;1.50;99.90
60027;DHT22;45891;53.006;6.512;2022-11-20T09:35:10;1.50;99.90
60027;DHT22;45891;53.006;6.512;2022-11-20T09:37:37;1.50;99.90
60027;DHT22;45891;53.006;6.512;2022-11-20T09:40:03;1.50;99.90
60027;DHT22;45891;53.006;6.512;2022-11-20T09:45:16;1.50;99.90
60027;DHT22;45891;53.006;6.512;2022-11-20T09:47:51;1.50;99.90
60027;DHT22;45891;53.006;6.512;2022-11-20T09:55:19;1.70;99.90
60027;DHT22;45891;53.006;6.512;2022-11-20T09:57:46;1.70;99.90
60027;DHT22;45891;53.006;6.512;2022-11-20T10:00:13;1.80;99.90
60027;DHT22;45891;53.006;6.512;2022-11-20T10:02:44;1.80;99.90
60027;DHT22;45891;53.006;6.512;2022-11-20T10:07:52;1.90;99.90
60027;DHT22;45891;53.006;6.512;2022-11-20T10:15:44;2.10;99.90
60027;DHT22;45891;53.006;6.512;2022-11-20T10:20:43;2.20;99.90
60027;DHT22;45891;53.006;6.512;2022-11-20T10:26:03;2.40;99.90
60027;DHT22;45891;53.006;6.512;2022-11-20T10:31:10;2.70;99.90
60027;DHT22;45891;53.006;6.512;2022-11-20T10:33:38;2.80;99.90
60027;DHT22;45891;53.006;6.512;2022-11-20T10:36:07;2.90;99.90
60027;DHT22;45891;53.006;6.512;2022-11-20T10:38:38;3.10;99.90
60027;DHT22;45891;53.006;6.512;2022-11-20T10:41:05;3.10;99.90
60027;DHT22;45891;53.006;6.512;2022-11-20T10:43:52;3.20;99.90
60027;DHT22;45891;53.006;6.512;2022-11-20T10:46:20;3.20;99.90
60027;DHT22;45891;53.006;6.512;2022-11-20T10:48:47;3.10;99.90
60027;DHT22;45891;53.006;6.512;2022-11-20T10:56:32;2.90;99.90
60027;DHT22;45891;53.006;6.512;2022-11-20T11:01:40;3.00;99.90
60027;DHT22;45891;53.006;6.512;2022-11-20T11:04:15;3.10;99.90
60027;DHT22;45891;53.006;6.512;2022-11-20T11:06:45;3.20;99.90
60027;DHT22;45891;53.006;6.512;2022-11-20T11:09:15;3.20;99.90
60027;DHT22;45891;53.006;6.512;2022-11-20T11:11:42;3.20;99.90
60027;DHT22;45891;53.006;6.512;2022-11-20T11:14:08;3.30;99.90
60027;DHT22;45891;53.006;6.512;2022-11-20T11:16:35;3.20;99.90
60027;DHT22;45891;53.006;6.512;2022-11-20T11:21:30;3.40;99.90
60027;DHT22;45891;53.006;6.512;2022-11-20T11:24:00;3.40;99.90
60027;DHT22;45891;53.006;6.512;2022-11-20T11:26:26;3.40;99.90
60027;DHT22;45891;53.006;6.512;2022-11-20T11:28:57;3.50;99.90
60027;DHT22;45891;53.006;6.512;2022-11-20T11:31:27;3.40;99.90
60027;DHT22;45891;53.006;6.512;2022-11-20T11:34:03;3.40;99.90
60027;DHT22;45891;53.006;6.512;2022-11-20T11:36:30;3.50;99.90
60027;DHT22;45891;53.006;6.512;2022-11-20T11:38:57;3.60;99.90
60027;DHT22;45891;53.006;6.512;2022-11-20T11:41:24;3.60;99.90
60027;DHT22;45891;53.006;6.512;2022-11-20T11:43:54;3.60;99.90
60027;DHT22;45891;53.006;6.512;2022-11-20T11:46:39;3.70;99.90
60027;DHT22;45891;53.006;6.512;2022-11-20T11:54:01;3.90;99.90
60027;DHT22;45891;53.006;6.512;2022-11-20T11:56:28;4.10;99.90
60027;DHT22;45891;53.006;6.512;2022-11-20T11:58:56;4.40;99.90
60027;DHT22;45891;53.006;6.512;2022-11-20T12:01:29;4.60;99.90
60027;DHT22;45891;53.006;6.512;2022-11-20T12:04:13;5.50;99.90
60027;DHT22;45891;53.006;6.512;2022-11-20T12:06:41;6.60;99.90
60027;DHT22;45891;53.006;6.512;2022-11-20T12:09:09;7.70;99.90
60027;DHT22;45891;53.006;6.512;2022-11-20T12:14:21;9.90;99.90
60027;DHT22;45891;53.006;6.512;2022-11-20T12:16:49;11.10;99.90
60027;DHT22;45891;53.006;6.512;2022-11-20T12:19:16;11.80;98.40
60027;DHT22;45891;53.006;6.512;2022-11-20T12:24:25;11.90;94.90
60027;DHT22;45891;53.006;6.512;2022-11-20T12:31:59;9.10;94.20
60027;DHT22;45891;53.006;6.512;2022-11-20T12:37:21;7.50;96.80
60027;DHT22;45891;53.006;6.512;2022-11-20T12:39:50;7.10;96.90
60027;DHT22;45891;53.006;6.512;2022-11-20T12:42:22;6.90;97.70
60027;DHT22;45891;53.006;6.512;2022-11-20T12:45:14;6.90;97.80
60027;DHT22;45891;53.006;6.512;2022-11-20T12:47:49;7.90;97.30
60027;DHT22;45891;53.006;6.512;2022-11-20T12:52:54;10.70;98.70
60027;DHT22;45891;53.006;6.512;2022-11-20T13:00:33;11.80;93.20
60027;DHT22;45891;53.006;6.512;2022-11-20T13:08:18;8.40;93.00
60027;DHT22;45891;53.006;6.512;2022-11-20T13:10:46;7.40;93.40
60027;DHT22;45891;53.006;6.512;2022-11-20T13:13:22;7.00;95.00
60027;DHT22;45891;53.006;6.512;2022-11-20T13:18:37;6.70;96.60
60027;DHT22;45891;53.006;6.512;2022-11-20T13:21:13;6.80;97.00
60027;DHT22;45891;53.006;6.512;2022-11-20T13:23:39;7.10;98.20
60027;DHT22;45891;53.006;6.512;2022-11-20T13:26:06;7.50;97.60
60027;DHT22;45891;53.006;6.512;2022-11-20T13:28:39;7.70;97.10
60027;DHT22;45891;53.006;6.512;2022-11-20T13:31:09;7.40;97.20
60027;DHT22;45891;53.006;6.512;2022-11-20T13:33:51;7.10;96.80
60027;DHT22;45891;53.006;6.512;2022-11-20T13:36:20;6.80;96.30
60027;DHT22;45891;53.006;6.512;2022-11-20T13:38:48;6.50;96.20
60027;DHT22;45891;53.006;6.512;2022-11-20T13:41:32;6.20;97.80
60027;DHT22;45891;53.006;6.512;2022-11-20T13:44:05;6.00;98.00
60027;DHT22;45891;53.006;6.512;2022-11-20T13:46:41;5.80;98.20
60027;DHT22;45891;53.006;6.512;2022-11-20T14:02:16;4.90;99.70
60027;DHT22;45891;53.006;6.512;2022-11-20T14:04:45;4.80;99.90
60027;DHT22;45891;53.006;6.512;2022-11-20T14:07:11;4.70;99.90
60027;DHT22;45891;53.006;6.512;2022-11-20T14:09:37;4.70;99.90
60027;DHT22;45891;53.006;6.512;2022-11-20T14:12:18;4.60;99.90
60027;DHT22;45891;53.006;6.512;2022-11-20T14:14:48;4.60;99.90
60027;DHT22;45891;53.006;6.512;2022-11-20T14:17:19;4.50;99.90
60027;DHT22;45891;53.006;6.512;2022-11-20T14:19:45;4.50;99.90
60027;DHT22;45891;53.006;6.512;2022-11-20T14:22:17;4.40;99.90
60027;DHT22;45891;53.006;6.512;2022-11-20T14:24:44;4.40;99.90
60027;DHT22;45891;53.006;6.512;2022-11-20T14:27:12;4.30;99.90
60027;DHT22;45891;53.006;6.512;2022-11-20T14:29:38;4.30;99.90
60027;DHT22;45891;53.006;6.512;2022-11-20T14:32:06;4.20;99.90
60027;DHT22;45891;53.006;6.512;2022-11-20T14:34:32;4.20;99.90
60027;DHT22;45891;53.006;6.512;2022-11-20T14:37:02;4.10;99.90
60027;DHT22;45891;53.006;6.512;2022-11-20T14:39:30;4.10;99.90
60027;DHT22;45891;53.006;6.512;2022-11-20T14:41:57;4.00;99.90
60027;DHT22;45891;53.006;6.512;2022-11-20T14:44:25;4.00;99.90
60027;DHT22;45891;53.006;6.512;2022-11-20T14:46:52;3.90;99.90
60027;DHT22;45891;53.006;6.512;2022-11-20T14:49:18;3.80;99.90
60027;DHT22;45891;53.006;6.512;2022-11-20T14:51:44;3.70;99.90
60027;DHT22;45891;53.006;6.512;2022-11-20T14:54:18;3.70;99.90
60027;DHT22;45891;53.006;6.512;2022-11-20T14:57:02;3.60;99.90
60027;DHT22;45891;53.006;6.512;2022-11-20T14:59:30;3.50;99.90
60027;DHT22;45891;53.006;6.512;2022-11-20T15:02:00;3.50;99.90
60027;DHT22;45891;53.006;6.512;2022-11-20T15:04:26;3.40;99.90
60027;DHT22;45891;53.006;6.512;2022-11-20T15:06:53;3.30;99.90
60027;DHT22;45891;53.006;6.512;2022-11-20T15:09:20;3.20;99.90
60027;DHT22;45891;53.006;6.512;2022-11-20T15:11:58;3.10;99.90
60027;DHT22;45891;53.006;6.512;2022-11-20T15:14:26;3.10;99.90
60027;DHT22;45891;53.006;6.512;2022-11-20T15:16:52;3.10;99.90
60027;DHT22;45891;53.006;6.512;2022-11-20T15:19:20;3.10;99.90
60027;DHT22;45891;53.006;6.512;2022-11-20T15:21:46;3.10;99.90
60027;DHT22;45891;53.006;6.512;2022-11-20T15:24:12;3.10;99.90
60027;DHT22;45891;53.006;6.512;2022-11-20T15:26:38;3.00;99.90
60027;DHT22;45891;53.006;6.512;2022-11-20T15:29:08;3.00;99.90
60027;DHT22;45891;53.006;6.512;2022-11-20T15:31:35;3.00;99.90
60027;DHT22;45891;53.006;6.512;2022-11-20T15:34:01;3.00;99.90
60027;DHT22;45891;53.006;6.512;2022-11-20T15:36:27;2.90;99.90
60027;DHT22;45891;53.006;6.512;2022-11-20T15:38:53;2.90;99.90
60027;DHT22;45891;53.006;6.512;2022-11-20T15:41:18;2.90;99.90
60027;DHT22;45891;53.006;6.512;2022-11-20T15:43:44;2.90;99.90
60027;DHT22;45891;53.006;6.512;2022-11-20T15:46:11;2.90;99.90
60027;DHT22;45891;53.006;6.512;2022-11-20T15:48:43;2.80;99.90
60027;DHT22;45891;53.006;6.512;2022-11-20T15:53:36;2.80;99.90
60027;DHT22;45891;53.006;6.512;2022-11-20T15:56:02;2.80;99.90
60027;DHT22;45891;53.006;6.512;2022-11-20T15:58:29;2.70;99.90
60027;DHT22;45891;53.006;6.512;2022-11-20T16:00:55;2.70;99.90
60027;DHT22;45891;53.006;6.512;2022-11-20T16:03:21;2.70;99.90
60027;DHT22;45891;53.006;6.512;2022-11-20T16:05:48;2.60;99.90
60027;DHT22;45891;53.006;6.512;2022-11-20T16:08:14;2.70;99.90
60027;DHT22;45891;53.006;6.512;2022-11-20T16:10:40;2.60;99.90
60027;DHT22;45891;53.006;6.512;2022-11-20T16:13:17;2.60;99.90
60027;DHT22;45891;53.006;6.512;2022-11-20T16:16:05;2.60;99.90
60027;DHT22;45891;53.006;6.512;2022-11-20T16:18:32;2.60;99.90
60027;DHT22;45891;53.006;6.512;2022-11-20T16:20:58;2.60;99.90
60027;DHT22;45891;53.006;6.512;2022-11-20T16:23:24;2.50;99.90
60027;DHT22;45891;53.006;6.512;2022-11-20T16:25:51;2.50;99.90
60027;DHT22;45891;53.006;6.512;2022-11-20T16:28:17;2.50;99.90
60027;DHT22;45891;53.006;6.512;2022-11-20T16:30:43;2.50;99.90
60027;DHT22;45891;53.006;6.512;2022-11-20T16:33:11;2.50;99.90
60027;DHT22;45891;53.006;6.512;2022-11-20T16:35:40;2.50;99.90
60027;DHT22;45891;53.006;6.512;2022-11-20T16:38:06;2.50;99.90
60027;DHT22;45891;53.006;6.512;2022-11-20T16:40:32;2.50;99.90
60027;DHT22;45891;53.006;6.512;2022-11-20T16:43:01;2.50;99.90
60027;DHT22;45891;53.006;6.512;2022-11-20T16:45:31;2.50;99.90
60027;DHT22;45891;53.006;6.512;2022-11-20T16:47:57;2.50;99.90
60027;DHT22;45891;53.006;6.512;2022-11-20T16:50:23;2.50;99.90
60027;DHT22;45891;53.006;6.512;2022-11-20T16:52:49;2.50;99.90
60027;DHT22;45891;53.006;6.512;2022-11-20T16:55:15;2.50;99.90
60027;DHT22;45891;53.006;6.512;2022-11-20T16:57:41;2.50;99.90
60027;DHT22;45891;53.006;6.512;2022-11-20T17:00:07;2.40;99.90
60027;DHT22;45891;53.006;6.512;2022-11-20T17:02:33;2.50;99.90
60027;DHT22;45891;53.006;6.512;2022-11-20T17:04:59;2.40;99.90
60027;DHT22;45891;53.006;6.512;2022-11-20T17:07:25;2.50;99.90
60027;DHT22;45891;53.006;6.512;2022-11-20T17:09:51;2.50;99.90
60027;DHT22;45891;53.006;6.512;2022-11-20T17:12:17;2.40;99.90
60027;DHT22;45891;53.006;6.512;2022-11-20T17:14:43;2.40;99.90
60027;DHT22;45891;53.006;6.512;2022-11-20T17:17:09;2.40;99.90
60027;DHT22;45891;53.006;6.512;2022-11-20T17:19:35;2.40;99.90
60027;DHT22;45891;53.006;6.512;2022-11-20T17:22:01;2.40;99.90